createdAt,value
2022-08-26T00:00:35.653Z,98878.81
2022-08-26T00:03:39.320Z,98876.59
2022-08-26T00:06:42.465Z,98864.00
2022-08-26T00:09:49.963Z,98871.56
2022-08-26T00:12:52.114Z,98866.38
2022-08-26T00:15:54.160Z,98866.03
2022-08-26T00:18:56.652Z,98864.41
2022-08-26T00:21:58.410Z,98856.28
2022-08-26T00:25:00.230Z,98860.06
2022-08-26T00:28:02.036Z,98856.75
2022-08-26T00:31:04.609Z,98861.56
2022-08-26T00:34:09.513Z,98860.41
2022-08-26T00:37:16.135Z,98863.09
2022-08-26T00:40:23.571Z,98860.63
2022-08-26T00:43:27.078Z,98855.22
2022-08-26T00:46:31.700Z,98858.19
2022-08-26T00:49:43.910Z,98857.81
2022-08-26T00:52:46.566Z,98859.06
2022-08-26T00:55:59.658Z,98855.22
2022-08-26T00:59:06.313Z,98855.66
2022-08-26T01:02:08.831Z,98859.44
2022-08-26T01:05:23.209Z,98857.19
2022-08-26T01:08:28.365Z,98857.66
2022-08-26T01:11:32.051Z,98851.09
2022-08-26T01:14:36.707Z,98853.19
2022-08-26T01:17:39.627Z,98854.25
2022-08-26T01:20:57.736Z,98857.44
2022-08-26T01:24:00.080Z,98856.25
2022-08-26T01:27:07.878Z,98860.22
2022-08-26T01:30:11.916Z,98862.56
2022-08-26T01:33:19.405Z,98860.91
2022-08-26T01:36:21.447Z,98863.84
2022-08-26T01:39:23.699Z,98870.53
2022-08-26T01:42:27.330Z,98861.00
2022-08-26T01:45:33.586Z,98858.78
2022-08-26T01:48:37.991Z,98862.31
2022-08-26T01:51:41.050Z,98863.59
2022-08-26T01:54:42.978Z,98861.94
2022-08-26T01:57:51.359Z,98860.53
2022-08-26T02:00:58.603Z,98857.25
2022-08-26T02:04:25.689Z,98858.53
2022-08-26T02:07:28.611Z,98862.28
2022-08-26T02:10:30.420Z,98868.50
2022-08-26T02:13:34.915Z,98861.69
2022-08-26T02:16:42.140Z,98866.25
2022-08-26T02:19:47.366Z,98853.59
2022-08-26T02:22:49.973Z,98849.25
2022-08-26T02:26:05.708Z,98849.25
2022-08-26T02:29:23.731Z,98845.13
2022-08-26T02:32:25.846Z,98854.28
2022-08-26T02:35:30.323Z,98851.81
2022-08-26T02:38:32.973Z,98851.22
2022-08-26T02:41:35.302Z,98846.53
2022-08-26T02:44:46.576Z,98840.53
2022-08-26T02:47:49.935Z,98843.69
2022-08-26T02:50:52.152Z,98851.19
2022-08-26T02:53:54.400Z,98845.41
2022-08-26T02:56:57.699Z,98842.94
2022-08-26T03:00:00.851Z,98843.19
2022-08-26T03:03:03.839Z,98838.03
2022-08-26T03:06:05.887Z,98840.56
2022-08-26T03:09:08.535Z,98834.31
2022-08-26T03:12:11.769Z,98836.44
2022-08-26T03:15:18.402Z,98830.47
2022-08-26T03:18:20.558Z,98828.69
2022-08-26T03:21:22.411Z,98831.81
2022-08-26T03:24:25.462Z,98826.88
2022-08-26T03:27:27.207Z,98823.84
2022-08-26T03:30:44.677Z,98827.56
2022-08-26T03:33:48.216Z,98825.91
2022-08-26T03:36:54.318Z,98831.31
2022-08-26T03:39:56.673Z,98820.19
2022-08-26T03:43:01.016Z,98831.84
2022-08-26T03:46:09.445Z,98827.13
2022-08-26T03:49:11.497Z,98823.63
2022-08-26T03:52:13.516Z,98820.91
2022-08-26T03:55:16.488Z,98821.97
2022-08-26T03:58:20.705Z,98824.22
2022-08-26T04:01:23.157Z,98830.44
2022-08-26T04:04:25.759Z,98815.09
2022-08-26T04:07:28.094Z,98819.44
2022-08-26T04:10:33.780Z,98817.34
2022-08-26T04:13:35.523Z,98819.81
2022-08-26T04:16:37.416Z,98821.81
2022-08-26T04:19:41.127Z,98829.56
2022-08-26T04:22:43.226Z,98832.78
2022-08-26T04:25:45.274Z,98825.94
2022-08-26T04:28:49.156Z,98826.72
2022-08-26T04:31:55.447Z,98831.06
2022-08-26T04:34:57.546Z,98828.25
2022-08-26T04:37:59.773Z,98830.50
2022-08-26T04:41:03.268Z,98824.78
2022-08-26T04:44:07.843Z,98810.91
2022-08-26T04:47:09.693Z,98828.31
2022-08-26T04:50:15.196Z,98818.19
2022-08-26T04:53:17.893Z,98815.97
2022-08-26T04:56:19.698Z,98810.00
2022-08-26T04:59:25.158Z,98811.88
2022-08-26T05:02:30.424Z,98807.06
2022-08-26T05:05:32.213Z,98810.53
2022-08-26T05:08:34.051Z,98813.81
2022-08-26T05:11:37.306Z,98820.97
2022-08-26T05:14:41.260Z,98814.44
2022-08-26T05:17:43.281Z,98816.31
2022-08-26T05:20:48.990Z,98821.09
2022-08-26T05:23:52.082Z,98812.13
2022-08-26T05:26:53.878Z,98811.34
2022-08-26T05:29:59.039Z,98812.97
2022-08-26T05:33:01.926Z,98813.66
2022-08-26T05:36:13.074Z,98807.50
2022-08-26T05:39:15.210Z,98806.28
2022-08-26T05:42:17.208Z,98797.88
2022-08-26T05:45:20.256Z,98801.03
2022-08-26T05:48:24.211Z,98799.34
2022-08-26T05:51:26.668Z,98801.81
2022-08-26T05:54:34.827Z,98797.78
2022-08-26T05:57:42.227Z,98803.88
2022-08-26T06:00:45.480Z,98799.44
2022-08-26T06:03:51.744Z,98798.63
2022-08-26T06:06:53.612Z,98796.94
2022-08-26T06:10:09.969Z,98799.13
2022-08-26T06:13:18.487Z,98790.84
2022-08-26T06:16:24.179Z,98793.53
2022-08-26T06:19:26.046Z,98795.16
2022-08-26T06:22:53.597Z,98793.22
2022-08-26T06:25:55.422Z,98795.84
2022-08-26T06:28:59.342Z,98792.44
2022-08-26T06:32:04.737Z,98778.06
2022-08-26T06:35:07.302Z,98781.03
2022-08-26T06:38:16.199Z,98787.84
2022-08-26T06:41:21.011Z,98782.56
2022-08-26T06:44:23.311Z,98777.66
2022-08-26T06:47:25.674Z,98786.97
2022-08-26T06:50:30.091Z,98778.66
2022-08-26T06:53:32.200Z,98770.16
2022-08-26T06:56:41.182Z,98777.63
2022-08-26T06:59:42.904Z,98770.75
2022-08-26T07:02:46.986Z,98777.34
2022-08-26T07:05:49.373Z,98774.81
2022-08-26T07:09:01.762Z,98775.91
2022-08-26T07:12:06.804Z,98778.09
2022-08-26T07:15:10.272Z,98777.91
2022-08-26T07:18:12.172Z,98775.31
2022-08-26T07:21:18.253Z,98776.41
2022-08-26T07:24:20.101Z,98769.06
2022-08-26T07:27:22.787Z,98770.59
2022-08-26T07:30:25.763Z,98770.59
2022-08-26T07:33:29.141Z,98763.59
2022-08-26T07:36:32.514Z,98762.56
2022-08-26T07:39:34.742Z,98760.44
2022-08-26T07:42:36.840Z,98759.31
2022-08-26T07:45:38.610Z,98755.34
2022-08-26T07:48:40.536Z,98755.94
2022-08-26T07:51:49.302Z,98761.50
2022-08-26T07:54:51.097Z,98759.94
2022-08-26T07:57:52.984Z,98759.41
2022-08-26T08:00:54.841Z,98760.84
2022-08-26T08:03:56.641Z,98757.22
2022-08-26T08:06:58.523Z,98749.06
2022-08-26T08:10:05.590Z,98752.22
2022-08-26T08:13:11.927Z,98749.50
2022-08-26T08:16:16.631Z,98739.41
2022-08-26T08:19:18.753Z,98743.16
2022-08-26T08:22:23.586Z,98743.16
2022-08-26T08:25:26.177Z,98742.25
2022-08-26T08:28:28.575Z,98736.81
2022-08-26T08:34:54.899Z,98732.56
2022-08-26T08:37:57.169Z,98734.25
2022-08-26T08:40:59.026Z,98738.66
2022-08-26T08:44:02.360Z,98732.22
2022-08-26T08:47:11.790Z,98721.19
2022-08-26T08:50:31.770Z,98725.03
2022-08-26T08:53:35.848Z,98730.03
2022-08-26T08:56:59.747Z,98723.13
2022-08-26T09:00:12.031Z,98713.03
2022-08-26T09:03:49.031Z,98717.88
2022-08-26T09:06:55.572Z,98712.38
2022-08-26T09:10:06.539Z,98713.00
2022-08-26T09:13:13.689Z,98709.81
2022-08-26T09:16:32.368Z,98711.25
2022-08-26T09:19:47.647Z,98709.06
2022-08-26T09:22:49.507Z,98711.84
2022-08-26T09:26:00.193Z,98710.88
2022-08-26T09:29:05.665Z,98704.09
2022-08-26T09:32:22.128Z,98706.75
2022-08-26T09:35:41.423Z,98707.97
2022-08-26T09:38:44.491Z,98703.88
2022-08-26T09:42:02.755Z,98707.75
2022-08-26T09:45:10.428Z,98703.13
2022-08-26T09:48:23.582Z,98701.75
2022-08-26T09:51:32.209Z,98692.00
2022-08-26T09:54:37.760Z,98689.41
2022-08-26T09:57:54.932Z,98701.44
2022-08-26T10:00:58.924Z,98694.28
2022-08-26T10:04:12.729Z,98694.94
2022-08-26T10:07:21.507Z,98694.88
2022-08-26T10:10:26.743Z,98694.22
2022-08-26T10:13:31.605Z,98685.03
2022-08-26T10:16:50.724Z,98684.22
2022-08-26T10:20:23.338Z,98690.47
2022-08-26T10:23:29.808Z,98680.22
2022-08-26T10:26:45.261Z,98679.69
2022-08-26T10:29:50.725Z,98682.50
2022-08-26T10:33:00.790Z,98674.59
2022-08-26T10:36:30.303Z,98671.44
2022-08-26T10:39:37.021Z,98665.75
2022-08-26T10:43:00.551Z,98669.16
2022-08-26T10:46:16.355Z,98658.38
2022-08-26T10:49:18.860Z,98657.28
2022-08-26T10:52:46.341Z,98659.06
2022-08-26T10:56:15.779Z,98652.28
2022-08-26T10:59:34.119Z,98647.69
2022-08-26T11:02:48.334Z,98648.00
2022-08-26T11:06:21.276Z,98639.78
2022-08-26T11:09:45.254Z,98643.00
2022-08-26T11:12:49.743Z,98632.22
2022-08-26T11:15:54.258Z,98629.81
2022-08-26T11:18:56.063Z,98629.50
2022-08-26T11:22:24.925Z,98625.09
2022-08-26T11:25:30.959Z,98619.97
2022-08-26T11:28:35.557Z,98616.84
2022-08-26T11:31:40.419Z,98613.00
2022-08-26T11:34:54.054Z,98598.09
2022-08-26T11:38:15.121Z,98602.69
2022-08-26T11:41:24.290Z,98600.56
2022-08-26T11:44:35.887Z,98594.00
2022-08-26T11:47:37.754Z,98591.34
2022-08-26T11:50:39.435Z,98585.81
2022-08-26T11:53:44.957Z,98583.19
2022-08-26T11:56:52.491Z,98582.09
2022-08-26T11:59:55.385Z,98578.97
2022-08-26T12:03:00.411Z,98572.50
2022-08-26T12:06:03.267Z,98570.25
2022-08-26T12:09:20.153Z,98561.91
2022-08-26T12:12:34.663Z,98559.38
2022-08-26T12:15:37.014Z,98552.13
2022-08-26T12:18:39.155Z,98541.97
2022-08-26T12:21:40.939Z,98544.25
2022-08-26T12:24:47.881Z,98543.22
2022-08-26T12:27:53.737Z,98530.22
2022-08-26T12:31:06.509Z,98542.34
2022-08-26T12:34:13.111Z,98534.59
2022-08-26T12:37:20.091Z,98532.66
2022-08-26T12:40:31.156Z,98522.06
2022-08-26T12:43:45.036Z,98523.56
2022-08-26T12:46:49.738Z,98526.09
2022-08-26T12:50:09.612Z,98519.00
2022-08-26T12:53:11.298Z,98520.31
2022-08-26T12:56:24.797Z,98516.25
2022-08-26T12:59:26.787Z,98523.66
2022-08-26T13:02:36.089Z,98519.38
2022-08-26T13:05:37.994Z,98506.38
2022-08-26T13:08:42.599Z,98510.84
2022-08-26T13:11:44.942Z,98506.97
2022-08-26T13:14:47.145Z,98508.88
2022-08-26T13:17:48.825Z,98496.47
2022-08-26T13:20:50.675Z,98482.84
2022-08-26T13:23:53.099Z,98484.44
2022-08-26T13:26:54.914Z,98477.78
2022-08-26T13:29:57.841Z,98482.94
2022-08-26T13:33:01.083Z,98470.59
2022-08-26T13:36:04.611Z,98467.03
2022-08-26T13:39:06.616Z,98469.13
2022-08-26T13:42:08.994Z,98468.22
2022-08-26T13:45:11.303Z,98463.13
2022-08-26T13:48:13.177Z,98457.13
2022-08-26T13:51:16.527Z,98455.41
2022-08-26T13:54:18.324Z,98461.91
2022-08-26T13:57:20.095Z,98464.38
2022-08-26T14:00:22.317Z,98454.19
2022-08-26T14:03:25.007Z,98452.44
2022-08-26T14:06:26.879Z,98449.63
2022-08-26T14:09:28.621Z,98442.72
2022-08-26T14:12:30.525Z,98444.72
2022-08-26T14:15:37.765Z,98444.59
2022-08-26T14:18:42.557Z,98443.03
2022-08-26T14:21:46.417Z,98435.03
2022-08-26T14:24:49.253Z,98429.31
2022-08-26T14:27:53.206Z,98421.03
2022-08-26T14:30:57.499Z,98425.03
2022-08-26T14:34:03.365Z,98415.72
2022-08-26T14:37:07.391Z,98419.00
2022-08-26T14:40:10.729Z,98423.16
2022-08-26T14:43:15.901Z,98419.59
2022-08-26T14:46:18.401Z,98425.50
2022-08-26T14:49:21.891Z,98419.97
2022-08-26T14:52:23.940Z,98418.44
2022-08-26T14:55:26.778Z,98427.19
2022-08-26T14:58:34.944Z,98425.41
2022-08-26T15:01:37.778Z,98423.59
2022-08-26T15:04:40.598Z,98426.31
2022-08-26T15:07:42.302Z,98427.22
2022-08-26T15:10:44.352Z,98425.09
2022-08-26T15:13:46.422Z,98421.13
2022-08-26T15:16:51.090Z,98421.34
2022-08-26T15:19:52.849Z,98426.25
2022-08-26T15:22:54.719Z,98415.84
2022-08-26T15:25:56.743Z,98423.31
2022-08-26T15:29:02.992Z,98407.59
2022-08-26T15:32:06.661Z,98411.47
2022-08-26T15:35:09.447Z,98410.06
2022-08-26T15:38:12.548Z,98409.22
2022-08-26T15:41:14.502Z,98404.09
2022-08-26T15:44:17.208Z,98403.75
2022-08-26T15:47:19.318Z,98408.19
2022-08-26T15:50:21.430Z,98401.56
2022-08-26T15:53:24.455Z,98407.59
2022-08-26T15:56:28.552Z,98405.97
2022-08-26T15:59:33.192Z,98395.28
2022-08-26T16:02:35.269Z,98398.84
2022-08-26T16:05:39.047Z,98398.97
2022-08-26T16:08:41.542Z,98403.09
2022-08-26T16:11:43.523Z,98399.31
2022-08-26T16:14:45.478Z,98403.78
2022-08-26T16:17:47.364Z,98394.16
2022-08-26T16:21:12.470Z,98397.81
2022-08-26T16:24:14.397Z,98401.38
2022-08-26T16:27:16.241Z,98397.00
2022-08-26T16:30:19.765Z,98404.66
2022-08-26T16:33:29.114Z,98401.59
2022-08-26T16:36:32.109Z,98396.03
2022-08-26T16:39:33.826Z,98403.66
2022-08-26T16:42:42.038Z,98406.72
2022-08-26T16:45:43.946Z,98403.78
2022-08-26T16:48:45.859Z,98405.13
2022-08-26T16:51:47.625Z,98405.09
2022-08-26T16:54:49.515Z,98407.19
2022-08-26T16:57:52.048Z,98404.72
2022-08-26T17:00:53.854Z,98409.06
2022-08-26T17:03:55.626Z,98406.50
2022-08-26T17:06:58.025Z,98403.91
2022-08-26T17:09:59.865Z,98401.22
2022-08-26T17:13:01.662Z,98397.94
2022-08-26T17:16:08.668Z,98398.19
2022-08-26T17:19:11.150Z,98403.94
2022-08-26T17:22:13.492Z,98397.03
2022-08-26T17:25:28.148Z,98401.47
2022-08-26T17:28:30.023Z,98390.34
2022-08-26T17:31:32.587Z,98388.25
2022-08-26T17:34:35.043Z,98389.38
2022-08-26T17:37:36.887Z,98392.16
2022-08-26T17:40:39.600Z,98388.59
2022-08-26T17:43:41.895Z,98392.16
2022-08-26T17:46:43.816Z,98395.38
2022-08-26T17:49:45.701Z,98398.63
2022-08-26T17:52:47.683Z,98397.47
2022-08-26T17:55:49.864Z,98408.91
2022-08-26T17:58:53.793Z,98403.63
2022-08-26T18:01:58.664Z,98407.03
2022-08-26T18:05:00.783Z,98412.63
2022-08-26T18:08:02.911Z,98411.97
2022-08-26T18:11:20.440Z,98414.06
2022-08-26T18:14:22.484Z,98421.94
2022-08-26T18:17:24.551Z,98420.97
2022-08-26T18:20:26.755Z,98416.69
2022-08-26T18:23:31.489Z,98423.34
2022-08-26T18:26:39.126Z,98424.19
2022-08-26T18:29:45.641Z,98424.75
2022-08-26T18:32:51.829Z,98431.91
2022-08-26T18:35:56.412Z,98435.81
2022-08-26T18:38:58.973Z,98438.41
2022-08-26T18:42:01.014Z,98436.03
2022-08-26T18:45:04.855Z,98438.81
2022-08-26T18:48:08.068Z,98444.88
2022-08-26T18:51:19.768Z,98441.59
2022-08-26T18:54:21.825Z,98450.66
2022-08-26T18:57:24.196Z,98454.88
2022-08-26T19:00:26.010Z,98450.63
2022-08-26T19:03:28.767Z,98461.94
2022-08-26T19:06:33.048Z,98465.25
2022-08-26T19:09:36.049Z,98470.25
2022-08-26T19:12:38.454Z,98477.38
2022-08-26T19:15:43.347Z,98476.84
2022-08-26T19:18:45.664Z,98478.25
2022-08-26T19:21:48.158Z,98481.28
2022-08-26T19:24:50.062Z,98486.44
2022-08-26T19:27:52.014Z,98482.88
2022-08-26T19:30:53.846Z,98483.50
2022-08-26T19:33:58.044Z,98483.84
2022-08-26T19:37:00.065Z,98497.56
2022-08-26T19:40:02.211Z,98498.13
2022-08-26T19:43:04.988Z,98499.84
2022-08-26T19:46:18.496Z,98492.25
2022-08-26T19:49:20.322Z,98496.63
2022-08-26T19:52:23.952Z,98506.75
2022-08-26T19:55:32.136Z,98512.22
2022-08-26T19:58:34.113Z,98511.97
2022-08-26T20:01:35.968Z,98517.19
2022-08-26T20:04:38.538Z,98520.75
2022-08-26T20:07:40.630Z,98513.97
2022-08-26T20:10:42.475Z,98520.84
2022-08-26T20:13:47.152Z,98516.22
2022-08-26T20:16:49.395Z,98518.66
2022-08-26T20:20:26.846Z,98519.81
2022-08-26T20:23:31.484Z,98527.97
2022-08-26T20:26:35.317Z,98527.47
2022-08-26T20:29:38.511Z,98524.22
2022-08-26T20:32:41.593Z,98523.41
2022-08-26T20:35:43.524Z,98533.78
2022-08-26T20:38:45.992Z,98532.69
2022-08-26T20:41:48.096Z,98527.03
2022-08-26T20:44:54.226Z,98537.31
2022-08-26T20:47:56.725Z,98535.69
2022-08-26T20:50:59.779Z,98531.59
2022-08-26T20:54:01.636Z,98525.63
2022-08-26T20:57:03.531Z,98519.91
2022-08-26T21:00:06.486Z,98526.72
2022-08-26T21:03:08.243Z,98523.47
2022-08-26T21:06:10.489Z,98531.06
2022-08-26T21:09:14.584Z,98527.00
2022-08-26T21:12:18.164Z,98533.25
2022-08-26T21:15:20.019Z,98529.72
2022-08-26T21:18:21.875Z,98540.84
2022-08-26T21:21:27.386Z,98538.97
2022-08-26T21:24:29.183Z,98538.41
2022-08-26T21:27:31.187Z,98535.13
2022-08-26T21:30:34.251Z,98537.03
2022-08-26T21:33:36.324Z,98542.16
2022-08-26T21:36:38.142Z,98539.16
2022-08-26T21:39:40.003Z,98535.31
2022-08-26T21:42:41.981Z,98543.22
2022-08-26T21:45:43.834Z,98555.44
2022-08-26T21:48:51.310Z,98548.38
2022-08-26T21:51:53.235Z,98557.31
2022-08-26T21:54:59.945Z,98547.81
2022-08-26T21:58:02.429Z,98553.25
2022-08-26T22:01:09.535Z,98541.00
2022-08-26T22:04:11.520Z,98544.56
2022-08-26T22:07:13.487Z,98544.56
2022-08-26T22:10:15.335Z,98548.38
2022-08-26T22:13:21.849Z,98541.31
2022-08-26T22:16:26.886Z,98539.94
2022-08-26T22:19:31.747Z,98545.09
2022-08-26T22:22:35.980Z,98547.25
2022-08-26T22:25:38.109Z,98548.03
2022-08-26T22:28:40.108Z,98548.81
2022-08-26T22:31:43.497Z,98550.44
2022-08-26T22:34:45.499Z,98538.97
2022-08-26T22:37:47.473Z,98537.34
2022-08-26T22:40:52.005Z,98541.66
2022-08-26T22:43:54.101Z,98546.03
2022-08-26T22:46:56.038Z,98539.19
2022-08-26T22:49:59.418Z,98544.91
2022-08-26T22:53:01.248Z,98548.72
2022-08-26T22:56:03.612Z,98546.75
2022-08-26T22:59:07.887Z,98555.69
2022-08-26T23:02:11.959Z,98557.81
2022-08-26T23:05:14.788Z,98555.38
2022-08-26T23:08:16.923Z,98564.59
2022-08-26T23:11:19.150Z,98565.16
2022-08-26T23:14:20.953Z,98568.09
2022-08-26T23:17:22.850Z,98555.06
2022-08-26T23:20:24.834Z,98552.38
2022-08-26T23:23:27.674Z,98565.38
2022-08-26T23:26:29.536Z,98552.34
2022-08-26T23:29:31.330Z,98557.19
2022-08-26T23:32:33.104Z,98558.78
2022-08-26T23:35:34.917Z,98558.50
2022-08-26T23:38:36.754Z,98569.59
2022-08-26T23:41:39.059Z,98562.00
2022-08-26T23:44:41.072Z,98558.72
2022-08-26T23:47:42.826Z,98568.13
2022-08-26T23:51:03.433Z,98564.84
2022-08-26T23:54:05.221Z,98568.06
2022-08-26T23:57:07.886Z,98565.03
